sensor_id;sensor_type;location;lat;lon;timestamp;pressure;altitude;pressure_sealevel;temperature;humidity
61478;BME280;47345;52.334;10.392;2023-03-09T00:01:41;98595.09;;;0.82;92.28
61478;BME280;47345;52.334;10.392;2023-03-09T00:04:14;98591.83;;;0.79;92.27
61478;BME280;47345;52.334;10.392;2023-03-09T00:06:45;98598.58;;;0.78;92.52
61478;BME280;47345;52.334;10.392;2023-03-09T00:09:17;98604.63;;;0.78;92.65
61478;BME280;47345;52.334;10.392;2023-03-09T00:11:48;98603.20;;;0.77;92.61
61478;BME280;47345;52.334;10.392;2023-03-09T00:14:20;98601.79;;;0.74;92.92
61478;BME280;47345;52.334;10.392;2023-03-09T00:16:51;98604.16;;;0.77;93.08
61478;BME280;47345;52.334;10.392;2023-03-09T00:19:22;98609.77;;;0.74;92.89
61478;BME280;47345;52.334;10.392;2023-03-09T00:21:56;98609.33;;;0.71;93.10
61478;BME280;47345;52.334;10.392;2023-03-09T00:24:29;98613.92;;;0.69;93.16
61478;BME280;47345;52.334;10.392;2023-03-09T00:27:02;98614.45;;;0.69;93.17
61478;BME280;47345;52.334;10.392;2023-03-09T00:29:33;98605.50;;;0.69;93.31
61478;BME280;47345;52.334;10.392;2023-03-09T00:32:04;98600.32;;;0.68;93.36
61478;BME280;47345;52.334;10.392;2023-03-09T00:34:35;98600.70;;;0.67;93.49
61478;BME280;47345;52.334;10.392;2023-03-09T00:37:06;98597.54;;;0.67;93.56
61478;BME280;47345;52.334;10.392;2023-03-09T00:39:37;98600.61;;;0.68;93.81
61478;BME280;47345;52.334;10.392;2023-03-09T00:42:07;98594.00;;;0.69;93.67
61478;BME280;47345;52.334;10.392;2023-03-09T00:44:38;98587.38;;;0.69;93.66
61478;BME280;47345;52.334;10.392;2023-03-09T00:47:09;98583.76;;;0.68;93.65
61478;BME280;47345;52.334;10.392;2023-03-09T00:49:39;98583.51;;;0.66;93.64
61478;BME280;47345;52.334;10.392;2023-03-09T00:52:10;98584.66;;;0.65;93.89
61478;BME280;47345;52.334;10.392;2023-03-09T00:54:41;98586.39;;;0.64;93.97
61478;BME280;47345;52.334;10.392;2023-03-09T00:57:12;98582.66;;;0.63;93.88
61478;BME280;47345;52.334;10.392;2023-03-09T00:59:45;98581.55;;;0.60;93.91
61478;BME280;47345;52.334;10.392;2023-03-09T01:02:16;98576.23;;;0.58;94.07
61478;BME280;47345;52.334;10.392;2023-03-09T01:04:47;98565.84;;;0.56;94.10
61478;BME280;47345;52.334;10.392;2023-03-09T01:07:18;98561.77;;;0.55;94.11
61478;BME280;47345;52.334;10.392;2023-03-09T01:09:50;98562.66;;;0.50;94.13
61478;BME280;47345;52.334;10.392;2023-03-09T01:12:21;98561.30;;;0.46;94.29
61478;BME280;47345;52.334;10.392;2023-03-09T01:14:54;98557.29;;;0.40;94.08
61478;BME280;47345;52.334;10.392;2023-03-09T01:17:24;98557.18;;;0.37;94.29
61478;BME280;47345;52.334;10.392;2023-03-09T01:19:55;98562.45;;;0.34;94.30
61478;BME280;47345;52.334;10.392;2023-03-09T01:22:26;98560.84;;;0.30;94.36
61478;BME280;47345;52.334;10.392;2023-03-09T01:24:56;98560.88;;;0.29;94.42
61478;BME280;47345;52.334;10.392;2023-03-09T01:27:27;98552.17;;;0.28;94.68
61478;BME280;47345;52.334;10.392;2023-03-09T01:30:01;98543.20;;;0.28;94.78
61478;BME280;47345;52.334;10.392;2023-03-09T01:32:31;98534.29;;;0.26;94.61
61478;BME280;47345;52.334;10.392;2023-03-09T01:35:02;98530.63;;;0.24;94.65
61478;BME280;47345;52.334;10.392;2023-03-09T01:37:33;98538.52;;;0.21;94.62
61478;BME280;47345;52.334;10.392;2023-03-09T01:40:05;98525.47;;;0.20;94.66
61478;BME280;47345;52.334;10.392;2023-03-09T01:42:36;98517.14;;;0.18;94.79
61478;BME280;47345;52.334;10.392;2023-03-09T01:47:59;98512.95;;;0.12;94.89
61478;BME280;47345;52.334;10.392;2023-03-09T01:50:33;98515.10;;;0.11;94.98
61478;BME280;47345;52.334;10.392;2023-03-09T01:53:07;98512.10;;;0.10;95.06
61478;BME280;47345;52.334;10.392;2023-03-09T01:55:42;98504.36;;;0.09;95.29
61478;BME280;47345;52.334;10.392;2023-03-09T01:58:15;98498.91;;;0.10;95.27
61478;BME280;47345;52.334;10.392;2023-03-09T02:00:50;98498.30;;;0.10;95.56
61478;BME280;47345;52.334;10.392;2023-03-09T02:03:25;98500.61;;;0.10;95.49
61478;BME280;47345;52.334;10.392;2023-03-09T02:06:00;98500.61;;;0.09;95.40
61478;BME280;47345;52.334;10.392;2023-03-09T02:08:33;98495.27;;;0.08;95.61
61478;BME280;47345;52.334;10.392;2023-03-09T02:11:08;98491.27;;;0.06;95.62
61478;BME280;47345;52.334;10.392;2023-03-09T02:13:42;98495.08;;;0.06;95.67
61478;BME280;47345;52.334;10.392;2023-03-09T02:16:13;98499.24;;;0.06;95.82
61478;BME280;47345;52.334;10.392;2023-03-09T02:18:44;98504.98;;;0.04;95.73
61478;BME280;47345;52.334;10.392;2023-03-09T02:21:20;98506.14;;;0.04;95.72
61478;BME280;47345;52.334;10.392;2023-03-09T02:24:02;98497.35;;;0.02;95.77
61478;BME280;47345;52.334;10.392;2023-03-09T02:26:40;98500.55;;;0.03;95.84
61478;BME280;47345;52.334;10.392;2023-03-09T02:29:13;98499.20;;;0.05;96.06
61478;BME280;47345;52.334;10.392;2023-03-09T02:31:44;98496.63;;;0.04;95.93
61478;BME280;47345;52.334;10.392;2023-03-09T02:34:14;98494.73;;;0.03;95.96
61478;BME280;47345;52.334;10.392;2023-03-09T02:36:45;98495.77;;;0.04;95.97
61478;BME280;47345;52.334;10.392;2023-03-09T02:39:21;98499.53;;;0.04;95.90
61478;BME280;47345;52.334;10.392;2023-03-09T02:41:54;98501.54;;;0.02;96.14
61478;BME280;47345;52.334;10.392;2023-03-09T02:44:27;98504.34;;;0.06;96.34
61478;BME280;47345;52.334;10.392;2023-03-09T02:47:00;98507.67;;;0.08;96.24
61478;BME280;47345;52.334;10.392;2023-03-09T02:49:31;98512.89;;;0.10;96.21
61478;BME280;47345;52.334;10.392;2023-03-09T02:52:01;98530.41;;;0.12;96.23
61478;BME280;47345;52.334;10.392;2023-03-09T02:54:32;98530.09;;;0.11;96.13
61478;BME280;47345;52.334;10.392;2023-03-09T02:57:02;98535.66;;;0.11;96.10
61478;BME280;47345;52.334;10.392;2023-03-09T02:59:33;98537.60;;;0.11;96.10
61478;BME280;47345;52.334;10.392;2023-03-09T03:02:03;98541.48;;;0.12;96.24
61478;BME280;47345;52.334;10.392;2023-03-09T03:04:34;98536.86;;;0.11;96.21
61478;BME280;47345;52.334;10.392;2023-03-09T03:07:04;98535.16;;;0.11;96.14
61478;BME280;47345;52.334;10.392;2023-03-09T03:09:34;98531.40;;;0.11;96.16
61478;BME280;47345;52.334;10.392;2023-03-09T03:12:06;98528.84;;;0.11;96.19
61478;BME280;47345;52.334;10.392;2023-03-09T03:14:37;98532.95;;;0.10;96.08
61478;BME280;47345;52.334;10.392;2023-03-09T03:17:07;98530.79;;;0.08;96.21
61478;BME280;47345;52.334;10.392;2023-03-09T03:19:38;98527.93;;;0.08;96.29
61478;BME280;47345;52.334;10.392;2023-03-09T03:22:08;98526.75;;;0.09;96.44
61478;BME280;47345;52.334;10.392;2023-03-09T03:24:39;98531.88;;;0.10;96.35
61478;BME280;47345;52.334;10.392;2023-03-09T03:27:10;98533.48;;;0.10;96.34
61478;BME280;47345;52.334;10.392;2023-03-09T03:29:40;98531.30;;;0.09;96.38
61478;BME280;47345;52.334;10.392;2023-03-09T03:32:10;98537.73;;;0.09;96.50
61478;BME280;47345;52.334;10.392;2023-03-09T03:34:41;98540.03;;;0.09;96.45
61478;BME280;47345;52.334;10.392;2023-03-09T03:37:12;98542.25;;;0.09;96.40
61478;BME280;47345;52.334;10.392;2023-03-09T03:39:43;98540.10;;;0.09;96.47
61478;BME280;47345;52.334;10.392;2023-03-09T03:42:13;98537.99;;;0.10;96.53
61478;BME280;47345;52.334;10.392;2023-03-09T03:44:43;98542.52;;;0.10;96.46
61478;BME280;47345;52.334;10.392;2023-03-09T03:47:14;98547.48;;;0.10;96.63
61478;BME280;47345;52.334;10.392;2023-03-09T03:49:44;98551.23;;;0.11;96.66
61478;BME280;47345;52.334;10.392;2023-03-09T03:52:14;98561.05;;;0.12;96.58
61478;BME280;47345;52.334;10.392;2023-03-09T03:54:46;98565.98;;;0.11;96.58
61478;BME280;47345;52.334;10.392;2023-03-09T03:57:16;98575.41;;;0.10;96.53
61478;BME280;47345;52.334;10.392;2023-03-09T03:59:46;98581.34;;;0.08;96.53
61478;BME280;47345;52.334;10.392;2023-03-09T04:02:17;98582.08;;;0.08;96.63
61478;BME280;47345;52.334;10.392;2023-03-09T04:04:48;98582.42;;;0.10;96.75
61478;BME280;47345;52.334;10.392;2023-03-09T04:07:19;98587.11;;;0.11;96.85
61478;BME280;47345;52.334;10.392;2023-03-09T04:09:49;98589.89;;;0.12;96.82
61478;BME280;47345;52.334;10.392;2023-03-09T04:12:20;98598.79;;;0.12;96.93
61478;BME280;47345;52.334;10.392;2023-03-09T04:14:50;98601.71;;;0.15;96.92
61478;BME280;47345;52.334;10.392;2023-03-09T04:17:21;98593.90;;;0.16;97.08
61478;BME280;47345;52.334;10.392;2023-03-09T04:19:51;98592.56;;;0.15;96.76
61478;BME280;47345;52.334;10.392;2023-03-09T04:22:22;98600.60;;;0.15;96.76
61478;BME280;47345;52.334;10.392;2023-03-09T04:24:52;98609.23;;;0.15;96.96
61478;BME280;47345;52.334;10.392;2023-03-09T04:27:23;98611.64;;;0.16;96.99
61478;BME280;47345;52.334;10.392;2023-03-09T04:29:53;98615.48;;;0.15;96.94
61478;BME280;47345;52.334;10.392;2023-03-09T04:32:24;98611.05;;;0.15;96.85
61478;BME280;47345;52.334;10.392;2023-03-09T04:34:55;98611.74;;;0.13;96.78
61478;BME280;47345;52.334;10.392;2023-03-09T04:37:25;98622.13;;;0.13;96.87
61478;BME280;47345;52.334;10.392;2023-03-09T04:39:56;98625.36;;;0.13;96.94
61478;BME280;47345;52.334;10.392;2023-03-09T04:42:26;98631.66;;;0.14;96.89
61478;BME280;47345;52.334;10.392;2023-03-09T04:44:57;98623.89;;;0.15;97.05
61478;BME280;47345;52.334;10.392;2023-03-09T04:47:28;98629.19;;;0.16;96.94
61478;BME280;47345;52.334;10.392;2023-03-09T04:49:59;98626.03;;;0.15;96.86
61478;BME280;47345;52.334;10.392;2023-03-09T04:52:30;98627.96;;;0.14;96.72
61478;BME280;47345;52.334;10.392;2023-03-09T04:55:00;98632.28;;;0.14;96.82
61478;BME280;47345;52.334;10.392;2023-03-09T04:57:31;98643.03;;;0.14;96.91
61478;BME280;47345;52.334;10.392;2023-03-09T05:00:02;98653.42;;;0.16;97.04
61478;BME280;47345;52.334;10.392;2023-03-09T05:02:37;98656.69;;;0.15;96.93
61478;BME280;47345;52.334;10.392;2023-03-09T05:05:09;98665.92;;;0.16;97.05
61478;BME280;47345;52.334;10.392;2023-03-09T05:07:39;98674.64;;;0.18;97.04
61478;BME280;47345;52.334;10.392;2023-03-09T05:10:12;98675.40;;;0.21;97.10
61478;BME280;47345;52.334;10.392;2023-03-09T05:12:42;98677.60;;;0.20;96.89
61478;BME280;47345;52.334;10.392;2023-03-09T05:15:14;98673.70;;;0.20;96.95
61478;BME280;47345;52.334;10.392;2023-03-09T05:17:45;98668.36;;;0.21;96.97
61478;BME280;47345;52.334;10.392;2023-03-09T05:20:16;98669.45;;;0.21;96.94
61478;BME280;47345;52.334;10.392;2023-03-09T05:22:47;98673.02;;;0.19;96.95
61478;BME280;47345;52.334;10.392;2023-03-09T05:25:17;98680.24;;;0.21;97.18
61478;BME280;47345;52.334;10.392;2023-03-09T05:27:48;98681.04;;;0.21;97.10
61478;BME280;47345;52.334;10.392;2023-03-09T05:30:19;98682.03;;;0.22;97.17
61478;BME280;47345;52.334;10.392;2023-03-09T05:32:50;98683.48;;;0.22;97.15
61478;BME280;47345;52.334;10.392;2023-03-09T05:35:21;98686.25;;;0.21;97.12
61478;BME280;47345;52.334;10.392;2023-03-09T05:37:52;98691.04;;;0.20;97.18
61478;BME280;47345;52.334;10.392;2023-03-09T05:40:22;98698.02;;;0.22;97.33
61478;BME280;47345;52.334;10.392;2023-03-09T05:42:53;98707.23;;;0.25;97.65
61478;BME280;47345;52.334;10.392;2023-03-09T05:45:23;98712.38;;;0.27;97.56
61478;BME280;47345;52.334;10.392;2023-03-09T05:47:53;98708.10;;;0.30;97.53
61478;BME280;47345;52.334;10.392;2023-03-09T05:50:24;98715.34;;;0.33;97.57
61478;BME280;47345;52.334;10.392;2023-03-09T05:52:54;98718.98;;;0.34;97.30
61478;BME280;47345;52.334;10.392;2023-03-09T05:55:25;98725.35;;;0.33;97.17
61478;BME280;47345;52.334;10.392;2023-03-09T05:57:56;98733.46;;;0.33;97.23
61478;BME280;47345;52.334;10.392;2023-03-09T06:00:27;98726.83;;;0.32;97.27
61478;BME280;47345;52.334;10.392;2023-03-09T06:02:57;98730.48;;;0.34;97.23
61478;BME280;47345;52.334;10.392;2023-03-09T06:05:28;98727.34;;;0.33;97.20
61478;BME280;47345;52.334;10.392;2023-03-09T06:07:58;98729.77;;;0.32;97.03
61478;BME280;47345;52.334;10.392;2023-03-09T06:10:29;98744.20;;;0.31;97.10
61478;BME280;47345;52.334;10.392;2023-03-09T06:12:59;98751.99;;;0.29;97.07
61478;BME280;47345;52.334;10.392;2023-03-09T06:15:30;98764.39;;;0.27;97.08
61478;BME280;47345;52.334;10.392;2023-03-09T06:18:02;98767.27;;;0.29;97.23
61478;BME280;47345;52.334;10.392;2023-03-09T06:20:33;98771.77;;;0.32;97.46
61478;BME280;47345;52.334;10.392;2023-03-09T06:23:04;98768.20;;;0.35;97.55
61478;BME280;47345;52.334;10.392;2023-03-09T06:25:35;98771.17;;;0.38;97.53
61478;BME280;47345;52.334;10.392;2023-03-09T06:28:06;98770.02;;;0.38;97.29
61478;BME280;47345;52.334;10.392;2023-03-09T06:30:39;98773.48;;;0.37;97.15
61478;BME280;47345;52.334;10.392;2023-03-09T06:33:10;98777.77;;;0.38;97.31
61478;BME280;47345;52.334;10.392;2023-03-09T06:35:40;98782.46;;;0.41;97.37
61478;BME280;47345;52.334;10.392;2023-03-09T06:38:11;98788.31;;;0.43;97.22
61478;BME280;47345;52.334;10.392;2023-03-09T06:40:42;98783.73;;;0.43;97.25
61478;BME280;47345;52.334;10.392;2023-03-09T06:43:14;98783.50;;;0.44;96.96
61478;BME280;47345;52.334;10.392;2023-03-09T06:45:47;98776.41;;;0.43;96.98
61478;BME280;47345;52.334;10.392;2023-03-09T06:48:17;98780.21;;;0.43;96.92
61478;BME280;47345;52.334;10.392;2023-03-09T06:50:48;98788.06;;;0.42;96.88
61478;BME280;47345;52.334;10.392;2023-03-09T06:53:19;98790.26;;;0.42;96.92
61478;BME280;47345;52.334;10.392;2023-03-09T06:55:50;98800.49;;;0.43;96.96
61478;BME280;47345;52.334;10.392;2023-03-09T06:58:21;98809.00;;;0.45;97.20
61478;BME280;47345;52.334;10.392;2023-03-09T07:00:51;98814.02;;;0.50;97.20
61478;BME280;47345;52.334;10.392;2023-03-09T07:03:22;98823.36;;;0.54;97.26
61478;BME280;47345;52.334;10.392;2023-03-09T07:05:53;98822.35;;;0.56;97.02
61478;BME280;47345;52.334;10.392;2023-03-09T07:08:23;98819.73;;;0.57;96.70
61478;BME280;47345;52.334;10.392;2023-03-09T07:10:54;98818.03;;;0.58;96.66
61478;BME280;47345;52.334;10.392;2023-03-09T07:13:26;98818.45;;;0.59;96.64
61478;BME280;47345;52.334;10.392;2023-03-09T07:16:00;98819.73;;;0.62;96.78
61478;BME280;47345;52.334;10.392;2023-03-09T07:18:34;98818.77;;;0.65;96.71
61478;BME280;47345;52.334;10.392;2023-03-09T07:21:05;98821.53;;;0.70;96.69
61478;BME280;47345;52.334;10.392;2023-03-09T07:23:35;98829.48;;;0.74;96.44
61478;BME280;47345;52.334;10.392;2023-03-09T07:26:06;98836.65;;;0.79;96.29
61478;BME280;47345;52.334;10.392;2023-03-09T07:28:36;98843.91;;;0.84;96.34
61478;BME280;47345;52.334;10.392;2023-03-09T07:31:11;98850.34;;;0.88;96.36
61478;BME280;47345;52.334;10.392;2023-03-09T07:33:42;98861.30;;;0.92;96.11
61478;BME280;47345;52.334;10.392;2023-03-09T07:36:12;98869.08;;;0.94;95.77
61478;BME280;47345;52.334;10.392;2023-03-09T07:38:43;98871.69;;;0.97;95.85
61478;BME280;47345;52.334;10.392;2023-03-09T07:41:14;98867.73;;;1.00;95.74
61478;BME280;47345;52.334;10.392;2023-03-09T07:43:45;98876.80;;;1.04;95.83
61478;BME280;47345;52.334;10.392;2023-03-09T07:46:17;98886.70;;;1.07;95.50
61478;BME280;47345;52.334;10.392;2023-03-09T07:48:47;98898.48;;;1.10;95.46
61478;BME280;47345;52.334;10.392;2023-03-09T07:51:18;98906.30;;;1.14;95.40
61478;BME280;47345;52.334;10.392;2023-03-09T07:53:50;98907.71;;;1.17;95.32
61478;BME280;47345;52.334;10.392;2023-03-09T07:56:21;98909.17;;;1.18;95.19
61478;BME280;47345;52.334;10.392;2023-03-09T07:58:53;98914.54;;;1.20;95.05
61478;BME280;47345;52.334;10.392;2023-03-09T08:01:23;98913.09;;;1.20;94.68
61478;BME280;47345;52.334;10.392;2023-03-09T08:03:56;98921.29;;;1.19;94.61
61478;BME280;47345;52.334;10.392;2023-03-09T08:06:26;98918.67;;;1.18;94.30
61478;BME280;47345;52.334;10.392;2023-03-09T08:08:57;98933.88;;;1.22;94.64
61478;BME280;47345;52.334;10.392;2023-03-09T08:11:28;98940.81;;;1.24;94.50
61478;BME280;47345;52.334;10.392;2023-03-09T08:13:59;98945.11;;;1.24;94.23
61478;BME280;47345;52.334;10.392;2023-03-09T08:16:29;98946.09;;;1.26;94.40
61478;BME280;47345;52.334;10.392;2023-03-09T08:19:00;98941.19;;;1.28;93.96
61478;BME280;47345;52.334;10.392;2023-03-09T08:21:31;98938.64;;;1.33;94.32
61478;BME280;47345;52.334;10.392;2023-03-09T08:24:01;98939.21;;;1.37;94.14
61478;BME280;47345;52.334;10.392;2023-03-09T08:26:32;98940.06;;;1.39;93.75
61478;BME280;47345;52.334;10.392;2023-03-09T08:29:03;98942.48;;;1.38;93.45
61478;BME280;47345;52.334;10.392;2023-03-09T08:31:34;98936.91;;;1.38;93.62
61478;BME280;47345;52.334;10.392;2023-03-09T08:34:05;98939.69;;;1.39;93.63
61478;BME280;47345;52.334;10.392;2023-03-09T08:36:35;98949.86;;;1.41;93.57
61478;BME280;47345;52.334;10.392;2023-03-09T08:39:06;98958.62;;;1.41;93.03
61478;BME280;47345;52.334;10.392;2023-03-09T08:41:37;98960.08;;;1.38;92.88
61478;BME280;47345;52.334;10.392;2023-03-09T08:44:09;98964.50;;;1.37;93.10
61478;BME280;47345;52.334;10.392;2023-03-09T08:46:39;98967.65;;;1.38;93.38
61478;BME280;47345;52.334;10.392;2023-03-09T08:49:11;98970.11;;;1.37;93.23
61478;BME280;47345;52.334;10.392;2023-03-09T08:51:41;98974.63;;;1.38;93.35
61478;BME280;47345;52.334;10.392;2023-03-09T08:54:12;98976.15;;;1.38;93.37
61478;BME280;47345;52.334;10.392;2023-03-09T08:56:42;98982.02;;;1.39;93.28
61478;BME280;47345;52.334;10.392;2023-03-09T08:59:11;98984.63;;;1.38;92.96
61478;BME280;47345;52.334;10.392;2023-03-09T09:01:42;98983.39;;;1.40;93.33
61478;BME280;47345;52.334;10.392;2023-03-09T09:04:13;98986.27;;;1.44;93.60
61478;BME280;47345;52.334;10.392;2023-03-09T09:06:43;98988.29;;;1.48;93.22
61478;BME280;47345;52.334;10.392;2023-03-09T09:09:14;98991.88;;;1.50;93.03
61478;BME280;47345;52.334;10.392;2023-03-09T09:11:44;98995.07;;;1.53;93.14
61478;BME280;47345;52.334;10.392;2023-03-09T09:14:15;98995.94;;;1.55;92.80
61478;BME280;47345;52.334;10.392;2023-03-09T09:16:46;98998.89;;;1.60;93.41
61478;BME280;47345;52.334;10.392;2023-03-09T09:19:19;99007.80;;;1.65;93.13
61478;BME280;47345;52.334;10.392;2023-03-09T09:21:51;99003.78;;;1.68;93.24
61478;BME280;47345;52.334;10.392;2023-03-09T09:24:24;99008.34;;;1.72;92.93
61478;BME280;47345;52.334;10.392;2023-03-09T09:26:56;99014.21;;;1.75;92.60
61478;BME280;47345;52.334;10.392;2023-03-09T09:29:27;99010.70;;;1.79;92.55
61478;BME280;47345;52.334;10.392;2023-03-09T09:31:58;99022.25;;;1.86;93.00
61478;BME280;47345;52.334;10.392;2023-03-09T09:34:31;99023.41;;;1.91;92.37
61478;BME280;47345;52.334;10.392;2023-03-09T09:37:03;99025.06;;;1.95;92.50
61478;BME280;47345;52.334;10.392;2023-03-09T09:39:34;99026.86;;;2.00;92.50
61478;BME280;47345;52.334;10.392;2023-03-09T09:42:10;99026.15;;;2.04;92.18
61478;BME280;47345;52.334;10.392;2023-03-09T09:44:43;99027.90;;;2.04;91.72
61478;BME280;47345;52.334;10.392;2023-03-09T09:47:18;99033.30;;;2.05;91.76
61478;BME280;47345;52.334;10.392;2023-03-09T09:49:52;99024.27;;;2.09;91.63
61478;BME280;47345;52.334;10.392;2023-03-09T09:52:30;99026.74;;;2.16;91.46
61478;BME280;47345;52.334;10.392;2023-03-09T09:55:16;99027.92;;;2.19;91.08
61478;BME280;47345;52.334;10.392;2023-03-09T09:57:51;99024.19;;;2.24;91.38
61478;BME280;47345;52.334;10.392;2023-03-09T10:00:30;99026.13;;;2.27;91.04
61478;BME280;47345;52.334;10.392;2023-03-09T10:03:10;99033.24;;;2.35;91.22
61478;BME280;47345;52.334;10.392;2023-03-09T10:05:48;99039.14;;;2.45;91.47
61478;BME280;47345;52.334;10.392;2023-03-09T10:08:31;99039.84;;;2.55;91.20
61478;BME280;47345;52.334;10.392;2023-03-09T10:11:11;99039.68;;;2.62;90.61
61478;BME280;47345;52.334;10.392;2023-03-09T10:13:45;99042.87;;;2.71;90.79
61478;BME280;47345;52.334;10.392;2023-03-09T10:16:18;99040.95;;;2.82;90.64
61478;BME280;47345;52.334;10.392;2023-03-09T10:18:54;99043.92;;;2.86;89.71
61478;BME280;47345;52.334;10.392;2023-03-09T10:21:30;99048.67;;;2.89;89.10
61478;BME280;47345;52.334;10.392;2023-03-09T10:24:18;99056.30;;;2.91;88.76
61478;BME280;47345;52.334;10.392;2023-03-09T10:26:53;99054.98;;;2.93;88.66
61478;BME280;47345;52.334;10.392;2023-03-09T10:29:35;99062.11;;;2.97;88.66
61478;BME280;47345;52.334;10.392;2023-03-09T10:32:15;99067.38;;;2.96;88.52
61478;BME280;47345;52.334;10.392;2023-03-09T10:34:55;99070.63;;;2.96;88.21
61478;BME280;47345;52.334;10.392;2023-03-09T10:37:29;99069.78;;;2.95;88.10
61478;BME280;47345;52.334;10.392;2023-03-09T10:40:06;99068.40;;;2.92;87.57
61478;BME280;47345;52.334;10.392;2023-03-09T10:42:38;99073.55;;;2.91;87.63
61478;BME280;47345;52.334;10.392;2023-03-09T10:45:22;99080.27;;;2.90;87.75
61478;BME280;47345;52.334;10.392;2023-03-09T10:47:58;99080.35;;;2.89;87.60
61478;BME280;47345;52.334;10.392;2023-03-09T10:50:31;99080.64;;;2.84;86.88
61478;BME280;47345;52.334;10.392;2023-03-09T10:53:29;99081.78;;;2.80;87.26
61478;BME280;47345;52.334;10.392;2023-03-09T10:56:11;99087.17;;;2.85;87.53
61478;BME280;47345;52.334;10.392;2023-03-09T10:58:43;99088.59;;;2.91;87.99
61478;BME280;47345;52.334;10.392;2023-03-09T11:01:23;99087.27;;;2.92;87.57
61478;BME280;47345;52.334;10.392;2023-03-09T11:03:54;99094.20;;;2.99;88.00
61478;BME280;47345;52.334;10.392;2023-03-09T11:06:33;99095.60;;;3.02;87.60
61478;BME280;47345;52.334;10.392;2023-03-09T11:09:13;99095.60;;;3.04;87.35
61478;BME280;47345;52.334;10.392;2023-03-09T11:11:47;99098.59;;;3.03;87.04
61478;BME280;47345;52.334;10.392;2023-03-09T11:14:24;99109.48;;;3.04;87.44
61478;BME280;47345;52.334;10.392;2023-03-09T11:16:56;99112.15;;;3.04;86.99
61478;BME280;47345;52.334;10.392;2023-03-09T11:19:29;99115.66;;;3.07;87.60
61478;BME280;47345;52.334;10.392;2023-03-09T11:22:09;99116.35;;;3.12;87.71
61478;BME280;47345;52.334;10.392;2023-03-09T11:24:45;99114.08;;;3.13;87.30
61478;BME280;47345;52.334;10.392;2023-03-09T11:27:20;99113.99;;;3.12;87.12
61478;BME280;47345;52.334;10.392;2023-03-09T11:29:57;99121.25;;;3.09;86.19
61478;BME280;47345;52.334;10.392;2023-03-09T11:32:32;99131.34;;;3.06;86.89
61478;BME280;47345;52.334;10.392;2023-03-09T11:35:08;99131.15;;;3.04;86.76
61478;BME280;47345;52.334;10.392;2023-03-09T11:37:44;99131.63;;;3.01;86.55
61478;BME280;47345;52.334;10.392;2023-03-09T11:40:20;99129.02;;;2.96;86.47
61478;BME280;47345;52.334;10.392;2023-03-09T11:42:55;99124.42;;;2.94;86.79
61478;BME280;47345;52.334;10.392;2023-03-09T11:45:28;99128.95;;;2.93;86.82
61478;BME280;47345;52.334;10.392;2023-03-09T11:48:02;99131.61;;;2.93;86.74
61478;BME280;47345;52.334;10.392;2023-03-09T11:50:38;99139.88;;;2.93;86.76
61478;BME280;47345;52.334;10.392;2023-03-09T11:53:16;99150.77;;;2.93;86.90
61478;BME280;47345;52.334;10.392;2023-03-09T11:55:52;99153.66;;;2.96;87.15
61478;BME280;47345;52.334;10.392;2023-03-09T11:58:28;99147.06;;;2.98;87.35
61478;BME280;47345;52.334;10.392;2023-03-09T12:01:07;99145.30;;;3.01;87.33
61478;BME280;47345;52.334;10.392;2023-03-09T12:03:45;99146.06;;;2.96;86.63
61478;BME280;47345;52.334;10.392;2023-03-09T12:06:31;99140.63;;;2.93;86.48
61478;BME280;47345;52.334;10.392;2023-03-09T12:09:06;99129.35;;;2.90;86.69
61478;BME280;47345;52.334;10.392;2023-03-09T12:11:43;99133.92;;;2.91;87.38
61478;BME280;47345;52.334;10.392;2023-03-09T12:14:20;99136.97;;;2.94;87.41
61478;BME280;47345;52.334;10.392;2023-03-09T12:16:54;99130.88;;;2.97;87.15
61478;BME280;47345;52.334;10.392;2023-03-09T12:19:29;99134.62;;;2.97;87.32
61478;BME280;47345;52.334;10.392;2023-03-09T12:22:04;99133.90;;;3.00;87.50
61478;BME280;47345;52.334;10.392;2023-03-09T12:24:39;99140.36;;;3.03;87.45
61478;BME280;47345;52.334;10.392;2023-03-09T12:27:18;99147.44;;;3.04;87.09
61478;BME280;47345;52.334;10.392;2023-03-09T12:29:52;99145.35;;;3.00;86.56
61478;BME280;47345;52.334;10.392;2023-03-09T12:32:41;99139.78;;;2.97;86.65
61478;BME280;47345;52.334;10.392;2023-03-09T12:38:20;99144.50;;;2.83;86.38
61478;BME280;47345;52.334;10.392;2023-03-09T12:40:51;99156.52;;;2.80;86.71
61478;BME280;47345;52.334;10.392;2023-03-09T12:43:46;99147.02;;;2.80;86.97
61478;BME280;47345;52.334;10.392;2023-03-09T12:46:53;99139.15;;;2.79;86.73
61478;BME280;47345;52.334;10.392;2023-03-09T12:49:33;99140.70;;;2.82;87.16
61478;BME280;47345;52.334;10.392;2023-03-09T12:52:41;99130.77;;;2.80;86.82
61478;BME280;47345;52.334;10.392;2023-03-09T12:55:20;99133.05;;;2.79;86.69
61478;BME280;47345;52.334;10.392;2023-03-09T12:58:27;99138.55;;;2.82;87.18
61478;BME280;47345;52.334;10.392;2023-03-09T13:00:50;99148.56;;;2.82;87.04
61478;BME280;47345;52.334;10.392;2023-03-09T13:03:23;99155.08;;;2.86;87.15
61478;BME280;47345;52.334;10.392;2023-03-09T13:05:56;99156.09;;;2.88;86.98
61478;BME280;47345;52.334;10.392;2023-03-09T13:08:30;99157.71;;;2.89;87.14
61478;BME280;47345;52.334;10.392;2023-03-09T13:14:04;99159.46;;;2.95;87.17
61478;BME280;47345;52.334;10.392;2023-03-09T13:16:52;99156.98;;;2.97;87.13
61478;BME280;47345;52.334;10.392;2023-03-09T13:19:47;99158.42;;;2.95;86.88
61478;BME280;47345;52.334;10.392;2023-03-09T13:22:27;99153.46;;;2.93;86.51
61478;BME280;47345;52.334;10.392;2023-03-09T13:28:29;99162.71;;;2.84;86.73
61478;BME280;47345;52.334;10.392;2023-03-09T13:31:05;99172.05;;;2.89;87.35
61478;BME280;47345;52.334;10.392;2023-03-09T13:33:37;99178.67;;;2.94;87.32
61478;BME280;47345;52.334;10.392;2023-03-09T13:36:16;99170.66;;;2.98;87.22
61478;BME280;47345;52.334;10.392;2023-03-09T13:38:51;99177.38;;;3.01;86.99
61478;BME280;47345;52.334;10.392;2023-03-09T13:41:26;99183.58;;;3.00;86.84
61478;BME280;47345;52.334;10.392;2023-03-09T13:43:57;99181.86;;;2.99;87.02